sensor_id;sensor_type;location;lat;lon;timestamp;P1;durP1;ratioP1;P2;durP2;ratioP2
3359;SDS011;1693;49.602;11.046;2022-12-20T00:01:10;25.73;;;15.60;;
3359;SDS011;1693;49.602;11.046;2022-12-20T00:03:39;28.57;;;16.17;;
3359;SDS011;1693;49.602;11.046;2022-12-20T00:06:08;26.73;;;14.73;;
3359;SDS011;1693;49.602;11.046;2022-12-20T00:08:36;23.33;;;16.70;;
3359;SDS011;1693;49.602;11.046;2022-12-20T00:11:04;28.57;;;15.77;;
3359;SDS011;1693;49.602;11.046;2022-12-20T00:13:32;24.23;;;14.80;;
3359;SDS011;1693;49.602;11.046;2022-12-20T00:16:04;28.30;;;14.60;;
3359;SDS011;1693;49.602;11.046;2022-12-20T00:18:32;24.47;;;15.80;;
3359;SDS011;1693;49.602;11.046;2022-12-20T00:20:59;27.97;;;17.30;;
3359;SDS011;1693;49.602;11.046;2022-12-20T00:23:27;25.50;;;15.70;;
3359;SDS011;1693;49.602;11.046;2022-12-20T00:25:59;20.97;;;14.77;;
3359;SDS011;1693;49.602;11.046;2022-12-20T00:28:26;28.23;;;14.20;;
3359;SDS011;1693;49.602;11.046;2022-12-20T00:30:53;26.37;;;14.73;;
3359;SDS011;1693;49.602;11.046;2022-12-20T00:33:22;20.50;;;15.40;;
3359;SDS011;1693;49.602;11.046;2022-12-20T00:35:50;24.00;;;15.23;;
3359;SDS011;1693;49.602;11.046;2022-12-20T00:38:17;24.17;;;14.27;;
3359;SDS011;1693;49.602;11.046;2022-12-20T00:40:44;23.67;;;14.40;;
3359;SDS011;1693;49.602;11.046;2022-12-20T00:43:12;26.23;;;14.83;;
3359;SDS011;1693;49.602;11.046;2022-12-20T00:45:39;26.60;;;15.47;;
3359;SDS011;1693;49.602;11.046;2022-12-20T00:48:06;21.33;;;13.97;;
3359;SDS011;1693;49.602;11.046;2022-12-20T00:50:35;27.03;;;15.70;;
3359;SDS011;1693;49.602;11.046;2022-12-20T00:53:02;25.43;;;15.93;;
3359;SDS011;1693;49.602;11.046;2022-12-20T00:55:29;24.33;;;14.83;;
3359;SDS011;1693;49.602;11.046;2022-12-20T00:57:56;25.87;;;15.67;;
3359;SDS011;1693;49.602;11.046;2022-12-20T01:00:23;23.20;;;15.43;;
3359;SDS011;1693;49.602;11.046;2022-12-20T01:02:50;31.03;;;16.57;;
3359;SDS011;1693;49.602;11.046;2022-12-20T01:05:17;25.90;;;15.57;;
3359;SDS011;1693;49.602;11.046;2022-12-20T01:07:46;32.37;;;16.33;;
3359;SDS011;1693;49.602;11.046;2022-12-20T01:10:13;24.97;;;13.87;;
3359;SDS011;1693;49.602;11.046;2022-12-20T01:12:40;30.47;;;14.70;;
3359;SDS011;1693;49.602;11.046;2022-12-20T01:15:08;24.97;;;14.47;;
3359;SDS011;1693;49.602;11.046;2022-12-20T01:17:35;25.90;;;14.57;;
3359;SDS011;1693;49.602;11.046;2022-12-20T01:20:04;24.83;;;13.87;;
3359;SDS011;1693;49.602;11.046;2022-12-20T01:22:32;29.40;;;16.43;;
3359;SDS011;1693;49.602;11.046;2022-12-20T01:25:02;25.07;;;16.53;;
3359;SDS011;1693;49.602;11.046;2022-12-20T01:27:33;30.60;;;16.33;;
3359;SDS011;1693;49.602;11.046;2022-12-20T01:30:02;27.47;;;15.47;;
3359;SDS011;1693;49.602;11.046;2022-12-20T01:32:31;24.50;;;14.37;;
3359;SDS011;1693;49.602;11.046;2022-12-20T01:34:58;23.50;;;14.20;;
3359;SDS011;1693;49.602;11.046;2022-12-20T01:37:25;23.53;;;13.90;;
3359;SDS011;1693;49.602;11.046;2022-12-20T01:39:52;26.07;;;17.17;;
3359;SDS011;1693;49.602;11.046;2022-12-20T01:42:22;22.00;;;14.30;;
3359;SDS011;1693;49.602;11.046;2022-12-20T01:44:57;25.27;;;15.47;;
3359;SDS011;1693;49.602;11.046;2022-12-20T01:47:28;29.90;;;14.90;;
3359;SDS011;1693;49.602;11.046;2022-12-20T01:49:59;26.73;;;14.63;;
3359;SDS011;1693;49.602;11.046;2022-12-20T01:52:32;26.80;;;15.10;;
3359;SDS011;1693;49.602;11.046;2022-12-20T01:55:05;24.97;;;14.47;;
3359;SDS011;1693;49.602;11.046;2022-12-20T01:57:39;27.83;;;15.83;;
3359;SDS011;1693;49.602;11.046;2022-12-20T02:00:12;25.10;;;14.20;;
3359;SDS011;1693;49.602;11.046;2022-12-20T02:02:42;20.60;;;13.77;;
3359;SDS011;1693;49.602;11.046;2022-12-20T02:05:13;28.83;;;12.63;;
3359;SDS011;1693;49.602;11.046;2022-12-20T02:07:40;21.17;;;13.40;;
3359;SDS011;1693;49.602;11.046;2022-12-20T02:10:09;23.30;;;14.23;;
3359;SDS011;1693;49.602;11.046;2022-12-20T02:12:39;23.50;;;14.07;;
3359;SDS011;1693;49.602;11.046;2022-12-20T02:15:13;25.47;;;17.47;;
3359;SDS011;1693;49.602;11.046;2022-12-20T02:17:52;27.37;;;18.50;;
3359;SDS011;1693;49.602;11.046;2022-12-20T02:26:23;26.67;;;18.63;;
3359;SDS011;1693;49.602;11.046;2022-12-20T02:29:11;29.63;;;18.83;;
3359;SDS011;1693;49.602;11.046;2022-12-20T02:31:50;30.50;;;18.90;;
3359;SDS011;1693;49.602;11.046;2022-12-20T02:34:27;28.50;;;19.27;;
3359;SDS011;1693;49.602;11.046;2022-12-20T02:36:58;30.30;;;19.80;;
3359;SDS011;1693;49.602;11.046;2022-12-20T02:39:25;35.50;;;21.10;;
3359;SDS011;1693;49.602;11.046;2022-12-20T02:41:55;25.90;;;18.83;;
3359;SDS011;1693;49.602;11.046;2022-12-20T02:44:28;28.20;;;19.20;;
3359;SDS011;1693;49.602;11.046;2022-12-20T02:47:17;29.10;;;19.57;;
3359;SDS011;1693;49.602;11.046;2022-12-20T02:49:49;28.63;;;18.63;;
3359;SDS011;1693;49.602;11.046;2022-12-20T02:52:18;31.80;;;20.67;;
3359;SDS011;1693;49.602;11.046;2022-12-20T02:54:51;38.70;;;20.47;;
3359;SDS011;1693;49.602;11.046;2022-12-20T02:57:20;26.40;;;20.00;;
3359;SDS011;1693;49.602;11.046;2022-12-20T02:59:54;24.30;;;14.93;;
3359;SDS011;1693;49.602;11.046;2022-12-20T03:02:29;27.53;;;16.33;;
3359;SDS011;1693;49.602;11.046;2022-12-20T03:05:18;31.47;;;16.70;;
3359;SDS011;1693;49.602;11.046;2022-12-20T03:07:48;26.07;;;14.33;;
3359;SDS011;1693;49.602;11.046;2022-12-20T03:10:16;36.20;;;18.00;;
3359;SDS011;1693;49.602;11.046;2022-12-20T03:12:43;21.67;;;13.53;;
3359;SDS011;1693;49.602;11.046;2022-12-20T03:15:10;27.83;;;13.40;;
3359;SDS011;1693;49.602;11.046;2022-12-20T03:17:39;28.43;;;17.70;;
3359;SDS011;1693;49.602;11.046;2022-12-20T03:20:07;29.37;;;16.47;;
3359;SDS011;1693;49.602;11.046;2022-12-20T03:22:37;23.87;;;16.90;;
3359;SDS011;1693;49.602;11.046;2022-12-20T03:25:06;23.97;;;14.17;;
3359;SDS011;1693;49.602;11.046;2022-12-20T03:27:34;24.90;;;15.13;;
3359;SDS011;1693;49.602;11.046;2022-12-20T03:30:03;27.83;;;16.43;;
3359;SDS011;1693;49.602;11.046;2022-12-20T03:32:31;25.50;;;15.77;;
3359;SDS011;1693;49.602;11.046;2022-12-20T03:35:01;24.63;;;14.50;;
3359;SDS011;1693;49.602;11.046;2022-12-20T03:37:28;28.13;;;16.73;;
3359;SDS011;1693;49.602;11.046;2022-12-20T03:39:55;23.87;;;14.87;;
3359;SDS011;1693;49.602;11.046;2022-12-20T03:42:22;23.43;;;16.10;;
3359;SDS011;1693;49.602;11.046;2022-12-20T03:44:51;26.60;;;16.67;;
3359;SDS011;1693;49.602;11.046;2022-12-20T03:47:18;23.47;;;14.40;;
3359;SDS011;1693;49.602;11.046;2022-12-20T03:49:46;25.10;;;15.37;;
3359;SDS011;1693;49.602;11.046;2022-12-20T03:52:14;16.93;;;13.33;;
3359;SDS011;1693;49.602;11.046;2022-12-20T03:54:41;23.90;;;15.23;;
3359;SDS011;1693;49.602;11.046;2022-12-20T03:57:08;22.67;;;14.20;;
3359;SDS011;1693;49.602;11.046;2022-12-20T03:59:36;24.23;;;12.40;;
3359;SDS011;1693;49.602;11.046;2022-12-20T04:02:04;23.77;;;14.73;;
3359;SDS011;1693;49.602;11.046;2022-12-20T04:04:33;26.67;;;16.07;;
3359;SDS011;1693;49.602;11.046;2022-12-20T04:07:00;25.77;;;17.13;;
3359;SDS011;1693;49.602;11.046;2022-12-20T04:09:28;24.67;;;16.63;;
3359;SDS011;1693;49.602;11.046;2022-12-20T04:11:55;25.33;;;14.40;;
3359;SDS011;1693;49.602;11.046;2022-12-20T04:14:22;29.70;;;18.27;;
3359;SDS011;1693;49.602;11.046;2022-12-20T04:16:49;25.60;;;14.83;;
3359;SDS011;1693;49.602;11.046;2022-12-20T04:19:17;21.80;;;14.60;;
3359;SDS011;1693;49.602;11.046;2022-12-20T04:21:44;20.33;;;13.20;;
3359;SDS011;1693;49.602;11.046;2022-12-20T04:24:11;21.57;;;16.13;;
3359;SDS011;1693;49.602;11.046;2022-12-20T04:26:40;31.30;;;15.27;;
3359;SDS011;1693;49.602;11.046;2022-12-20T04:29:07;25.90;;;17.07;;
3359;SDS011;1693;49.602;11.046;2022-12-20T04:31:34;27.80;;;17.57;;
3359;SDS011;1693;49.602;11.046;2022-12-20T04:34:01;30.13;;;17.80;;
3359;SDS011;1693;49.602;11.046;2022-12-20T04:36:28;27.87;;;15.87;;
3359;SDS011;1693;49.602;11.046;2022-12-20T04:38:55;23.47;;;15.17;;
3359;SDS011;1693;49.602;11.046;2022-12-20T04:41:22;26.60;;;16.57;;
3359;SDS011;1693;49.602;11.046;2022-12-20T04:43:53;26.80;;;16.33;;
3359;SDS011;1693;49.602;11.046;2022-12-20T04:46:22;26.27;;;14.03;;
3359;SDS011;1693;49.602;11.046;2022-12-20T04:48:50;22.87;;;14.90;;
3359;SDS011;1693;49.602;11.046;2022-12-20T04:51:18;23.67;;;14.63;;
3359;SDS011;1693;49.602;11.046;2022-12-20T04:53:45;26.60;;;16.77;;
3359;SDS011;1693;49.602;11.046;2022-12-20T04:56:12;25.13;;;15.33;;
3359;SDS011;1693;49.602;11.046;2022-12-20T04:58:40;24.33;;;15.70;;
3359;SDS011;1693;49.602;11.046;2022-12-20T05:01:09;26.57;;;17.43;;
3359;SDS011;1693;49.602;11.046;2022-12-20T05:03:36;23.70;;;17.30;;
3359;SDS011;1693;49.602;11.046;2022-12-20T05:06:04;26.83;;;16.23;;
3359;SDS011;1693;49.602;11.046;2022-12-20T05:08:32;26.90;;;16.60;;
3359;SDS011;1693;49.602;11.046;2022-12-20T05:10:59;24.60;;;14.00;;
3359;SDS011;1693;49.602;11.046;2022-12-20T05:13:27;27.07;;;15.67;;
3359;SDS011;1693;49.602;11.046;2022-12-20T05:15:54;26.60;;;16.00;;
3359;SDS011;1693;49.602;11.046;2022-12-20T05:18:24;22.10;;;15.83;;
3359;SDS011;1693;49.602;11.046;2022-12-20T05:20:53;26.97;;;16.67;;
3359;SDS011;1693;49.602;11.046;2022-12-20T05:23:35;23.57;;;14.97;;
3359;SDS011;1693;49.602;11.046;2022-12-20T05:26:20;26.33;;;16.67;;
3359;SDS011;1693;49.602;11.046;2022-12-20T05:28:48;38.17;;;16.00;;
3359;SDS011;1693;49.602;11.046;2022-12-20T05:31:17;29.90;;;17.87;;
3359;SDS011;1693;49.602;11.046;2022-12-20T05:33:47;26.30;;;15.67;;
3359;SDS011;1693;49.602;11.046;2022-12-20T05:36:14;22.43;;;15.77;;
3359;SDS011;1693;49.602;11.046;2022-12-20T05:38:43;22.63;;;13.97;;
3359;SDS011;1693;49.602;11.046;2022-12-20T05:41:11;25.50;;;14.83;;
3359;SDS011;1693;49.602;11.046;2022-12-20T05:43:40;28.47;;;16.43;;
3359;SDS011;1693;49.602;11.046;2022-12-20T05:46:07;25.47;;;17.90;;
3359;SDS011;1693;49.602;11.046;2022-12-20T05:48:35;27.33;;;16.73;;
3359;SDS011;1693;49.602;11.046;2022-12-20T05:51:05;26.93;;;16.10;;
3359;SDS011;1693;49.602;11.046;2022-12-20T05:53:32;26.00;;;15.37;;
3359;SDS011;1693;49.602;11.046;2022-12-20T05:55:59;22.17;;;15.00;;
3359;SDS011;1693;49.602;11.046;2022-12-20T05:58:27;27.57;;;17.70;;
3359;SDS011;1693;49.602;11.046;2022-12-20T06:00:55;29.30;;;17.40;;
3359;SDS011;1693;49.602;11.046;2022-12-20T06:03:26;25.03;;;14.80;;
3359;SDS011;1693;49.602;11.046;2022-12-20T06:05:53;23.50;;;15.33;;
3359;SDS011;1693;49.602;11.046;2022-12-20T06:08:24;24.60;;;15.77;;
3359;SDS011;1693;49.602;11.046;2022-12-20T06:10:53;21.80;;;15.63;;
3359;SDS011;1693;49.602;11.046;2022-12-20T06:13:21;28.03;;;15.47;;
3359;SDS011;1693;49.602;11.046;2022-12-20T06:15:50;24.07;;;16.43;;
3359;SDS011;1693;49.602;11.046;2022-12-20T06:18:19;24.60;;;16.80;;
3359;SDS011;1693;49.602;11.046;2022-12-20T06:20:48;22.50;;;14.77;;
3359;SDS011;1693;49.602;11.046;2022-12-20T06:23:17;21.13;;;15.17;;
3359;SDS011;1693;49.602;11.046;2022-12-20T06:25:48;27.30;;;17.33;;
3359;SDS011;1693;49.602;11.046;2022-12-20T06:28:16;31.47;;;15.47;;
3359;SDS011;1693;49.602;11.046;2022-12-20T06:30:50;28.13;;;16.23;;
3359;SDS011;1693;49.602;11.046;2022-12-20T06:33:19;23.30;;;16.00;;
3359;SDS011;1693;49.602;11.046;2022-12-20T06:35:49;24.87;;;16.10;;
3359;SDS011;1693;49.602;11.046;2022-12-20T06:38:17;23.33;;;15.37;;
3359;SDS011;1693;49.602;11.046;2022-12-20T06:40:45;26.93;;;15.93;;
3359;SDS011;1693;49.602;11.046;2022-12-20T06:43:15;33.83;;;20.10;;
3359;SDS011;1693;49.602;11.046;2022-12-20T06:45:43;23.90;;;16.20;;
3359;SDS011;1693;49.602;11.046;2022-12-20T06:48:11;23.37;;;16.27;;
3359;SDS011;1693;49.602;11.046;2022-12-20T06:50:39;27.80;;;15.20;;
3359;SDS011;1693;49.602;11.046;2022-12-20T06:53:08;26.90;;;15.27;;
3359;SDS011;1693;49.602;11.046;2022-12-20T06:55:38;26.10;;;18.47;;
3359;SDS011;1693;49.602;11.046;2022-12-20T06:58:06;19.80;;;14.57;;
3359;SDS011;1693;49.602;11.046;2022-12-20T07:00:35;30.73;;;17.73;;
3359;SDS011;1693;49.602;11.046;2022-12-20T07:03:02;26.00;;;17.30;;
3359;SDS011;1693;49.602;11.046;2022-12-20T07:05:31;28.37;;;18.33;;
3359;SDS011;1693;49.602;11.046;2022-12-20T07:07:59;30.03;;;16.23;;
3359;SDS011;1693;49.602;11.046;2022-12-20T07:10:26;27.80;;;16.20;;
3359;SDS011;1693;49.602;11.046;2022-12-20T07:12:54;27.57;;;17.47;;
3359;SDS011;1693;49.602;11.046;2022-12-20T07:15:22;24.87;;;17.17;;
3359;SDS011;1693;49.602;11.046;2022-12-20T07:17:50;29.37;;;17.43;;
3359;SDS011;1693;49.602;11.046;2022-12-20T07:20:18;31.73;;;19.73;;
3359;SDS011;1693;49.602;11.046;2022-12-20T07:22:46;20.70;;;14.17;;
3359;SDS011;1693;49.602;11.046;2022-12-20T07:25:15;27.87;;;18.07;;
3359;SDS011;1693;49.602;11.046;2022-12-20T07:27:45;25.60;;;17.37;;
3359;SDS011;1693;49.602;11.046;2022-12-20T07:30:13;27.03;;;15.43;;
3359;SDS011;1693;49.602;11.046;2022-12-20T07:32:41;21.57;;;13.80;;
3359;SDS011;1693;49.602;11.046;2022-12-20T07:35:10;27.10;;;15.63;;
3359;SDS011;1693;49.602;11.046;2022-12-20T07:37:38;25.30;;;17.83;;
3359;SDS011;1693;49.602;11.046;2022-12-20T07:40:06;30.70;;;16.57;;
3359;SDS011;1693;49.602;11.046;2022-12-20T07:42:34;24.10;;;16.90;;
3359;SDS011;1693;49.602;11.046;2022-12-20T07:45:05;24.47;;;14.67;;
3359;SDS011;1693;49.602;11.046;2022-12-20T07:47:33;27.03;;;16.50;;
3359;SDS011;1693;49.602;11.046;2022-12-20T07:50:00;23.60;;;15.53;;
3359;SDS011;1693;49.602;11.046;2022-12-20T07:52:29;30.57;;;17.17;;
3359;SDS011;1693;49.602;11.046;2022-12-20T07:54:59;24.80;;;15.20;;
3359;SDS011;1693;49.602;11.046;2022-12-20T07:57:29;25.80;;;15.93;;
3359;SDS011;1693;49.602;11.046;2022-12-20T08:00:00;22.80;;;14.67;;
3359;SDS011;1693;49.602;11.046;2022-12-20T08:02:29;22.43;;;13.90;;
3359;SDS011;1693;49.602;11.046;2022-12-20T08:04:59;27.80;;;16.63;;
3359;SDS011;1693;49.602;11.046;2022-12-20T08:07:29;25.40;;;15.80;;
3359;SDS011;1693;49.602;11.046;2022-12-20T08:09:57;25.57;;;15.63;;
3359;SDS011;1693;49.602;11.046;2022-12-20T08:12:25;26.00;;;16.10;;
3359;SDS011;1693;49.602;11.046;2022-12-20T08:14:56;25.83;;;17.47;;
3359;SDS011;1693;49.602;11.046;2022-12-20T08:17:24;23.97;;;15.97;;
3359;SDS011;1693;49.602;11.046;2022-12-20T08:19:51;25.10;;;16.47;;
3359;SDS011;1693;49.602;11.046;2022-12-20T08:22:17;27.43;;;16.90;;
3359;SDS011;1693;49.602;11.046;2022-12-20T08:24:46;21.97;;;15.90;;
3359;SDS011;1693;49.602;11.046;2022-12-20T08:27:13;30.97;;;17.90;;
3359;SDS011;1693;49.602;11.046;2022-12-20T08:29:40;25.10;;;16.23;;
3359;SDS011;1693;49.602;11.046;2022-12-20T08:32:07;27.10;;;17.20;;
3359;SDS011;1693;49.602;11.046;2022-12-20T08:34:34;23.27;;;16.90;;
3359;SDS011;1693;49.602;11.046;2022-12-20T08:37:02;27.03;;;17.93;;
3359;SDS011;1693;49.602;11.046;2022-12-20T08:39:29;23.70;;;17.23;;
3359;SDS011;1693;49.602;11.046;2022-12-20T08:41:57;22.30;;;13.73;;
3359;SDS011;1693;49.602;11.046;2022-12-20T08:44:24;26.20;;;16.17;;
3359;SDS011;1693;49.602;11.046;2022-12-20T08:46:51;25.77;;;16.30;;
3359;SDS011;1693;49.602;11.046;2022-12-20T08:49:18;24.50;;;17.60;;
3359;SDS011;1693;49.602;11.046;2022-12-20T08:51:46;24.57;;;15.67;;
3359;SDS011;1693;49.602;11.046;2022-12-20T08:54:13;20.57;;;14.67;;
3359;SDS011;1693;49.602;11.046;2022-12-20T08:56:41;25.50;;;16.87;;
3359;SDS011;1693;49.602;11.046;2022-12-20T08:59:12;20.40;;;14.97;;
3359;SDS011;1693;49.602;11.046;2022-12-20T09:01:39;27.93;;;18.63;;
3359;SDS011;1693;49.602;11.046;2022-12-20T09:04:08;25.67;;;14.67;;
3359;SDS011;1693;49.602;11.046;2022-12-20T09:06:36;24.60;;;15.37;;
3359;SDS011;1693;49.602;11.046;2022-12-20T09:09:03;23.37;;;15.97;;
3359;SDS011;1693;49.602;11.046;2022-12-20T09:11:31;27.07;;;16.90;;
3359;SDS011;1693;49.602;11.046;2022-12-20T09:13:59;25.50;;;16.33;;
3359;SDS011;1693;49.602;11.046;2022-12-20T09:16:28;21.93;;;15.93;;
3359;SDS011;1693;49.602;11.046;2022-12-20T09:18:57;26.03;;;16.50;;
3359;SDS011;1693;49.602;11.046;2022-12-20T09:21:26;25.00;;;16.37;;
3359;SDS011;1693;49.602;11.046;2022-12-20T09:23:54;22.13;;;15.10;;
3359;SDS011;1693;49.602;11.046;2022-12-20T09:26:22;21.50;;;14.70;;
3359;SDS011;1693;49.602;11.046;2022-12-20T09:28:49;20.47;;;14.53;;
3359;SDS011;1693;49.602;11.046;2022-12-20T09:31:17;20.70;;;15.03;;
3359;SDS011;1693;49.602;11.046;2022-12-20T09:33:46;22.70;;;15.93;;
3359;SDS011;1693;49.602;11.046;2022-12-20T09:36:14;22.57;;;14.60;;
3359;SDS011;1693;49.602;11.046;2022-12-20T09:38:44;19.77;;;13.40;;
3359;SDS011;1693;49.602;11.046;2022-12-20T09:41:18;21.33;;;15.23;;
3359;SDS011;1693;49.602;11.046;2022-12-20T09:43:56;20.17;;;14.40;;
3359;SDS011;1693;49.602;11.046;2022-12-20T09:46:27;23.70;;;15.10;;
3359;SDS011;1693;49.602;11.046;2022-12-20T09:48:55;24.67;;;15.00;;
3359;SDS011;1693;49.602;11.046;2022-12-20T09:51:28;21.33;;;14.40;;
3359;SDS011;1693;49.602;11.046;2022-12-20T09:54:05;22.57;;;13.70;;
3359;SDS011;1693;49.602;11.046;2022-12-20T09:56:42;22.03;;;13.80;;
3359;SDS011;1693;49.602;11.046;2022-12-20T09:59:13;18.47;;;13.43;;
3359;SDS011;1693;49.602;11.046;2022-12-20T10:01:44;25.83;;;16.27;;
3359;SDS011;1693;49.602;11.046;2022-12-20T10:04:23;24.30;;;15.43;;
3359;SDS011;1693;49.602;11.046;2022-12-20T10:07:03;17.90;;;14.60;;
3359;SDS011;1693;49.602;11.046;2022-12-20T10:09:54;18.30;;;14.50;;
3359;SDS011;1693;49.602;11.046;2022-12-20T10:12:46;22.77;;;14.53;;
3359;SDS011;1693;49.602;11.046;2022-12-20T10:15:21;21.60;;;13.90;;
3359;SDS011;1693;49.602;11.046;2022-12-20T10:17:58;22.13;;;15.23;;
3359;SDS011;1693;49.602;11.046;2022-12-20T10:20:43;21.80;;;13.40;;
3359;SDS011;1693;49.602;11.046;2022-12-20T10:23:21;20.80;;;14.00;;
3359;SDS011;1693;49.602;11.046;2022-12-20T10:25:54;18.77;;;14.17;;
3359;SDS011;1693;49.602;11.046;2022-12-20T10:28:23;18.10;;;12.63;;
3359;SDS011;1693;49.602;11.046;2022-12-20T10:30:52;19.83;;;13.13;;
3359;SDS011;1693;49.602;11.046;2022-12-20T10:33:20;21.83;;;14.07;;
3359;SDS011;1693;49.602;11.046;2022-12-20T10:35:50;20.57;;;13.83;;
3359;SDS011;1693;49.602;11.046;2022-12-20T10:38:17;21.27;;;14.67;;
3359;SDS011;1693;49.602;11.046;2022-12-20T10:40:46;20.27;;;13.07;;
3359;SDS011;1693;49.602;11.046;2022-12-20T10:43:14;15.93;;;12.00;;
3359;SDS011;1693;49.602;11.046;2022-12-20T10:45:44;22.07;;;14.30;;
3359;SDS011;1693;49.602;11.046;2022-12-20T10:48:25;17.20;;;12.80;;
3359;SDS011;1693;49.602;11.046;2022-12-20T10:50:58;19.83;;;11.73;;
3359;SDS011;1693;49.602;11.046;2022-12-20T10:53:26;16.37;;;11.53;;
3359;SDS011;1693;49.602;11.046;2022-12-20T10:56:04;19.13;;;13.77;;
3359;SDS011;1693;49.602;11.046;2022-12-20T10:58:38;17.47;;;12.40;;
3359;SDS011;1693;49.602;11.046;2022-12-20T11:01:10;21.60;;;12.97;;
3359;SDS011;1693;49.602;11.046;2022-12-20T11:03:53;17.50;;;12.00;;
3359;SDS011;1693;49.602;11.046;2022-12-20T11:06:24;14.03;;;11.40;;
3359;SDS011;1693;49.602;11.046;2022-12-20T11:12:01;20.70;;;13.00;;
3359;SDS011;1693;49.602;11.046;2022-12-20T11:14:31;17.17;;;10.87;;
3359;SDS011;1693;49.602;11.046;2022-12-20T11:17:00;15.83;;;11.07;;
3359;SDS011;1693;49.602;11.046;2022-12-20T11:19:39;13.67;;;11.10;;
3359;SDS011;1693;49.602;11.046;2022-12-20T11:22:24;25.07;;;13.23;;
3359;SDS011;1693;49.602;11.046;2022-12-20T11:25:04;16.97;;;11.60;;
3359;SDS011;1693;49.602;11.046;2022-12-20T11:27:47;20.60;;;12.20;;
3359;SDS011;1693;49.602;11.046;2022-12-20T11:30:24;21.70;;;12.83;;
3359;SDS011;1693;49.602;11.046;2022-12-20T11:33:06;15.17;;;11.00;;
3359;SDS011;1693;49.602;11.046;2022-12-20T11:35:46;20.80;;;12.47;;
3359;SDS011;1693;49.602;11.046;2022-12-20T11:38:24;18.27;;;12.63;;
3359;SDS011;1693;49.602;11.046;2022-12-20T11:41:02;13.43;;;9.83;;
3359;SDS011;1693;49.602;11.046;2022-12-20T11:43:44;16.17;;;10.50;;
3359;SDS011;1693;49.602;11.046;2022-12-20T11:46:25;16.47;;;12.87;;
3359;SDS011;1693;49.602;11.046;2022-12-20T11:52:12;15.80;;;11.63;;
3359;SDS011;1693;49.602;11.046;2022-12-20T11:54:48;16.13;;;12.40;;
3359;SDS011;1693;49.602;11.046;2022-12-20T11:57:25;15.53;;;11.90;;
3359;SDS011;1693;49.602;11.046;2022-12-20T11:59:57;14.53;;;11.20;;
3359;SDS011;1693;49.602;11.046;2022-12-20T12:02:30;16.90;;;12.13;;
3359;SDS011;1693;49.602;11.046;2022-12-20T12:05:03;15.67;;;10.30;;
3359;SDS011;1693;49.602;11.046;2022-12-20T12:07:33;15.43;;;11.70;;
3359;SDS011;1693;49.602;11.046;2022-12-20T12:10:11;20.30;;;12.90;;
3359;SDS011;1693;49.602;11.046;2022-12-20T12:12:42;20.03;;;12.07;;
3359;SDS011;1693;49.602;11.046;2022-12-20T12:15:15;17.90;;;10.80;;
3359;SDS011;1693;49.602;11.046;2022-12-20T12:17:55;14.87;;;11.73;;
3359;SDS011;1693;49.602;11.046;2022-12-20T12:20:47;23.40;;;12.63;;
3359;SDS011;1693;49.602;11.046;2022-12-20T12:23:38;17.90;;;11.70;;
3359;SDS011;1693;49.602;11.046;2022-12-20T12:26:17;17.17;;;12.73;;
3359;SDS011;1693;49.602;11.046;2022-12-20T12:28:50;17.93;;;12.47;;
3359;SDS011;1693;49.602;11.046;2022-12-20T12:31:24;23.40;;;12.50;;
3359;SDS011;1693;49.602;11.046;2022-12-20T12:33:59;19.97;;;12.23;;
3359;SDS011;1693;49.602;11.046;2022-12-20T12:36:41;15.27;;;11.33;;
3359;SDS011;1693;49.602;11.046;2022-12-20T12:39:29;15.83;;;10.53;;
3359;SDS011;1693;49.602;11.046;2022-12-20T12:42:29;18.73;;;10.87;;
3359;SDS011;1693;49.602;11.046;2022-12-20T12:45:21;18.97;;;10.53;;
3359;SDS011;1693;49.602;11.046;2022-12-20T12:47:52;14.67;;;11.37;;
3359;SDS011;1693;49.602;11.046;2022-12-20T12:50:23;17.33;;;11.80;;
3359;SDS011;1693;49.602;11.046;2022-12-20T12:52:53;17.73;;;11.70;;
3359;SDS011;1693;49.602;11.046;2022-12-20T12:55:36;14.30;;;11.53;;
3359;SDS011;1693;49.602;11.046;2022-12-20T13:01:09;19.50;;;11.90;;
3359;SDS011;1693;49.602;11.046;2022-12-20T13:03:41;14.90;;;12.00;;
3359;SDS011;1693;49.602;11.046;2022-12-20T13:18:26;16.00;;;10.40;;
3359;SDS011;1693;49.602;11.046;2022-12-20T13:23:44;14.00;;;9.77;;
3359;SDS011;1693;49.602;11.046;2022-12-20T13:29:20;17.70;;;10.97;;
3359;SDS011;1693;49.602;11.046;2022-12-20T13:31:49;13.73;;;9.40;;
3359;SDS011;1693;49.602;11.046;2022-12-20T13:39:52;19.47;;;11.10;;
3359;SDS011;1693;49.602;11.046;2022-12-20T13:42:25;16.90;;;11.27;;
3359;SDS011;1693;49.602;11.046;2022-12-20T13:45:00;18.57;;;10.63;;
3359;SDS011;1693;49.602;11.046;2022-12-20T13:47:44;15.47;;;11.27;;
3359;SDS011;1693;49.602;11.046;2022-12-20T13:50:23;25.13;;;12.50;;
3359;SDS011;1693;49.602;11.046;2022-12-20T13:52:54;16.90;;;11.40;;
3359;SDS011;1693;49.602;11.046;2022-12-20T13:55:29;20.70;;;14.43;;
3359;SDS011;1693;49.602;11.046;2022-12-20T13:58:02;16.90;;;11.70;;
3359;SDS011;1693;49.602;11.046;2022-12-20T14:00:36;20.30;;;12.13;;
3359;SDS011;1693;49.602;11.046;2022-12-20T14:03:08;13.00;;;10.40;;
3359;SDS011;1693;49.602;11.046;2022-12-20T14:05:47;15.50;;;8.67;;
3359;SDS011;1693;49.602;11.046;2022-12-20T14:08:16;17.60;;;10.13;;
3359;SDS011;1693;49.602;11.046;2022-12-20T14:10:46;18.57;;;10.30;;
3359;SDS011;1693;49.602;11.046;2022-12-20T14:13:18;12.57;;;9.27;;
3359;SDS011;1693;49.602;11.046;2022-12-20T14:15:46;17.20;;;9.20;;
3359;SDS011;1693;49.602;11.046;2022-12-20T14:18:17;15.50;;;10.60;;
3359;SDS011;1693;49.602;11.046;2022-12-20T14:20:49;15.80;;;9.37;;
3359;SDS011;1693;49.602;11.046;2022-12-20T14:23:18;17.00;;;11.70;;
3359;SDS011;1693;49.602;11.046;2022-12-20T14:25:48;16.60;;;11.63;;
3359;SDS011;1693;49.602;11.046;2022-12-20T14:28:24;14.20;;;10.50;;
3359;SDS011;1693;49.602;11.046;2022-12-20T14:30:57;14.37;;;10.80;;
3359;SDS011;1693;49.602;11.046;2022-12-20T14:33:33;14.67;;;10.67;;
3359;SDS011;1693;49.602;11.046;2022-12-20T14:36:09;15.07;;;11.53;;
3359;SDS011;1693;49.602;11.046;2022-12-20T14:38:45;15.87;;;10.97;;
3359;SDS011;1693;49.602;11.046;2022-12-20T14:41:31;15.80;;;10.90;;
3359;SDS011;1693;49.602;11.046;2022-12-20T14:44:02;16.50;;;11.37;;
3359;SDS011;1693;49.602;11.046;2022-12-20T14:46:46;22.43;;;13.30;;
3359;SDS011;1693;49.602;11.046;2022-12-20T14:49:20;16.20;;;12.17;;
3359;SDS011;1693;49.602;11.046;2022-12-20T14:52:03;16.67;;;10.90;;
3359;SDS011;1693;49.602;11.046;2022-12-20T14:54:33;21.90;;;13.43;;
3359;SDS011;1693;49.602;11.046;2022-12-20T14:57:09;15.87;;;11.13;;
3359;SDS011;1693;49.602;11.046;2022-12-20T14:59:38;18.33;;;12.13;;
3359;SDS011;1693;49.602;11.046;2022-12-20T15:04:59;16.03;;;11.43;;
3359;SDS011;1693;49.602;11.046;2022-12-20T15:07:32;18.37;;;12.17;;
3359;SDS011;1693;49.602;11.046;2022-12-20T15:10:00;16.63;;;12.00;;
3359;SDS011;1693;49.602;11.046;2022-12-20T15:12:29;17.90;;;11.23;;
3359;SDS011;1693;49.602;11.046;2022-12-20T15:14:57;18.90;;;12.83;;
3359;SDS011;1693;49.602;11.046;2022-12-20T15:17:24;16.30;;;12.93;;
3359;SDS011;1693;49.602;11.046;2022-12-20T15:19:51;17.83;;;11.60;;
3359;SDS011;1693;49.602;11.046;2022-12-20T15:22:20;33.67;;;21.77;;
3359;SDS011;1693;49.602;11.046;2022-12-20T15:24:50;16.80;;;13.23;;
3359;SDS011;1693;49.602;11.046;2022-12-20T15:27:19;16.43;;;12.10;;
3359;SDS011;1693;49.602;11.046;2022-12-20T15:30:05;21.13;;;13.53;;
3359;SDS011;1693;49.602;11.046;2022-12-20T15:32:56;19.37;;;12.33;;
3359;SDS011;1693;49.602;11.046;2022-12-20T15:35:24;20.47;;;13.97;;
3359;SDS011;1693;49.602;11.046;2022-12-20T15:37:55;22.33;;;14.77;;
3359;SDS011;1693;49.602;11.046;2022-12-20T15:40:23;27.17;;;13.73;;